sensor_id;sensor_type;location;lat;lon;timestamp;temperature;humidity
46898;DHT22;32646;50.958;6.258;2024-01-15T00:00:12;0.30;99.90
46898;DHT22;32646;50.958;6.258;2024-01-15T00:02:39;0.30;99.90
46898;DHT22;32646;50.958;6.258;2024-01-15T00:05:05;0.30;99.90
46898;DHT22;32646;50.958;6.258;2024-01-15T00:07:32;0.30;99.90
46898;DHT22;32646;50.958;6.258;2024-01-15T00:09:59;0.20;99.90
46898;DHT22;32646;50.958;6.258;2024-01-15T00:12:26;0.30;99.90
46898;DHT22;32646;50.958;6.258;2024-01-15T00:14:53;0.30;99.90
46898;DHT22;32646;50.958;6.258;2024-01-15T00:17:20;0.30;99.90
46898;DHT22;32646;50.958;6.258;2024-01-15T00:19:47;0.40;99.90
46898;DHT22;32646;50.958;6.258;2024-01-15T00:22:13;0.40;99.90
46898;DHT22;32646;50.958;6.258;2024-01-15T00:24:40;0.40;99.90
46898;DHT22;32646;50.958;6.258;2024-01-15T00:27:07;0.50;99.90
46898;DHT22;32646;50.958;6.258;2024-01-15T00:29:33;0.60;99.90
46898;DHT22;32646;50.958;6.258;2024-01-15T00:32:00;0.60;99.90
46898;DHT22;32646;50.958;6.258;2024-01-15T00:34:27;0.60;99.90
46898;DHT22;32646;50.958;6.258;2024-01-15T00:36:54;0.60;99.90
46898;DHT22;32646;50.958;6.258;2024-01-15T00:39:20;0.50;99.90
46898;DHT22;32646;50.958;6.258;2024-01-15T00:41:47;0.50;99.90
46898;DHT22;32646;50.958;6.258;2024-01-15T00:44:14;0.40;99.90
46898;DHT22;32646;50.958;6.258;2024-01-15T00:46:44;0.40;99.90
46898;DHT22;32646;50.958;6.258;2024-01-15T00:49:15;0.40;99.90
46898;DHT22;32646;50.958;6.258;2024-01-15T00:51:42;0.40;99.90
46898;DHT22;32646;50.958;6.258;2024-01-15T00:54:08;0.50;99.90
46898;DHT22;32646;50.958;6.258;2024-01-15T00:56:36;0.60;99.90
46898;DHT22;32646;50.958;6.258;2024-01-15T00:59:03;0.60;99.90
46898;DHT22;32646;50.958;6.258;2024-01-15T01:01:29;0.60;99.90
46898;DHT22;32646;50.958;6.258;2024-01-15T01:03:56;0.50;99.90
46898;DHT22;32646;50.958;6.258;2024-01-15T01:06:23;0.40;99.90
46898;DHT22;32646;50.958;6.258;2024-01-15T01:08:50;0.40;99.90
46898;DHT22;32646;50.958;6.258;2024-01-15T01:11:17;0.40;99.90
46898;DHT22;32646;50.958;6.258;2024-01-15T01:13:43;0.30;99.90
46898;DHT22;32646;50.958;6.258;2024-01-15T01:16:10;0.30;99.90
46898;DHT22;32646;50.958;6.258;2024-01-15T01:18:36;0.30;99.90
46898;DHT22;32646;50.958;6.258;2024-01-15T01:21:03;0.30;99.90
46898;DHT22;32646;50.958;6.258;2024-01-15T01:23:30;0.30;99.90
46898;DHT22;32646;50.958;6.258;2024-01-15T01:25:57;0.30;99.90
46898;DHT22;32646;50.958;6.258;2024-01-15T01:28:23;0.30;99.90
46898;DHT22;32646;50.958;6.258;2024-01-15T01:30:50;0.30;99.90
46898;DHT22;32646;50.958;6.258;2024-01-15T01:33:17;0.40;99.90
46898;DHT22;32646;50.958;6.258;2024-01-15T01:35:44;0.40;99.90
46898;DHT22;32646;50.958;6.258;2024-01-15T01:38:10;0.40;99.90
46898;DHT22;32646;50.958;6.258;2024-01-15T01:40:37;0.40;99.90
46898;DHT22;32646;50.958;6.258;2024-01-15T01:43:09;0.40;99.90
46898;DHT22;32646;50.958;6.258;2024-01-15T01:45:36;0.50;99.90
46898;DHT22;32646;50.958;6.258;2024-01-15T01:48:03;0.50;99.90
46898;DHT22;32646;50.958;6.258;2024-01-15T01:50:31;0.40;99.90
46898;DHT22;32646;50.958;6.258;2024-01-15T01:52:58;0.40;99.90
46898;DHT22;32646;50.958;6.258;2024-01-15T01:55:27;0.50;99.90
46898;DHT22;32646;50.958;6.258;2024-01-15T01:57:54;0.50;99.90
46898;DHT22;32646;50.958;6.258;2024-01-15T02:00:22;0.50;99.90
46898;DHT22;32646;50.958;6.258;2024-01-15T02:02:49;0.40;99.90
46898;DHT22;32646;50.958;6.258;2024-01-15T02:05:18;0.40;99.90
46898;DHT22;32646;50.958;6.258;2024-01-15T02:07:45;0.40;99.90
46898;DHT22;32646;50.958;6.258;2024-01-15T02:10:12;0.30;99.90
46898;DHT22;32646;50.958;6.258;2024-01-15T02:12:39;0.30;99.90
46898;DHT22;32646;50.958;6.258;2024-01-15T02:15:06;0.30;99.90
46898;DHT22;32646;50.958;6.258;2024-01-15T02:17:33;0.20;99.90
46898;DHT22;32646;50.958;6.258;2024-01-15T02:19:59;0.20;99.90
46898;DHT22;32646;50.958;6.258;2024-01-15T02:22:26;0.20;99.90
46898;DHT22;32646;50.958;6.258;2024-01-15T02:24:53;0.20;99.90
46898;DHT22;32646;50.958;6.258;2024-01-15T02:27:20;0.20;99.90
46898;DHT22;32646;50.958;6.258;2024-01-15T02:29:47;0.20;99.90
46898;DHT22;32646;50.958;6.258;2024-01-15T02:32:14;0.20;99.90
46898;DHT22;32646;50.958;6.258;2024-01-15T02:34:41;0.20;99.90
46898;DHT22;32646;50.958;6.258;2024-01-15T02:37:08;0.20;99.90
46898;DHT22;32646;50.958;6.258;2024-01-15T02:39:34;0.20;99.90
46898;DHT22;32646;50.958;6.258;2024-01-15T02:42:01;0.20;99.90
46898;DHT22;32646;50.958;6.258;2024-01-15T02:44:27;0.30;99.90
46898;DHT22;32646;50.958;6.258;2024-01-15T02:46:54;0.20;99.90
46898;DHT22;32646;50.958;6.258;2024-01-15T02:49:20;0.30;99.90
46898;DHT22;32646;50.958;6.258;2024-01-15T02:51:47;0.30;99.90
46898;DHT22;32646;50.958;6.258;2024-01-15T02:54:14;0.30;99.90
46898;DHT22;32646;50.958;6.258;2024-01-15T02:56:41;0.30;99.90
46898;DHT22;32646;50.958;6.258;2024-01-15T02:59:07;0.30;99.90
46898;DHT22;32646;50.958;6.258;2024-01-15T03:01:34;0.30;99.90
46898;DHT22;32646;50.958;6.258;2024-01-15T03:04:00;0.40;99.90
46898;DHT22;32646;50.958;6.258;2024-01-15T03:06:27;0.40;99.90
46898;DHT22;32646;50.958;6.258;2024-01-15T03:08:54;0.40;99.90
46898;DHT22;32646;50.958;6.258;2024-01-15T03:11:21;0.40;99.90
46898;DHT22;32646;50.958;6.258;2024-01-15T03:13:47;0.40;99.90
46898;DHT22;32646;50.958;6.258;2024-01-15T03:16:14;0.40;99.90
46898;DHT22;32646;50.958;6.258;2024-01-15T03:18:40;0.40;99.90
46898;DHT22;32646;50.958;6.258;2024-01-15T03:21:07;0.40;99.90
46898;DHT22;32646;50.958;6.258;2024-01-15T03:23:34;0.40;99.90
46898;DHT22;32646;50.958;6.258;2024-01-15T03:26:00;0.40;99.90
46898;DHT22;32646;50.958;6.258;2024-01-15T03:28:27;0.50;99.90
46898;DHT22;32646;50.958;6.258;2024-01-15T03:30:54;0.50;99.90
46898;DHT22;32646;50.958;6.258;2024-01-15T03:33:20;0.40;99.90
46898;DHT22;32646;50.958;6.258;2024-01-15T03:35:47;0.50;99.90
46898;DHT22;32646;50.958;6.258;2024-01-15T03:38:14;0.50;99.90
46898;DHT22;32646;50.958;6.258;2024-01-15T03:40:40;0.50;99.90
46898;DHT22;32646;50.958;6.258;2024-01-15T03:43:07;0.50;99.90
46898;DHT22;32646;50.958;6.258;2024-01-15T03:45:34;0.50;99.90
46898;DHT22;32646;50.958;6.258;2024-01-15T03:48:00;0.50;99.90
46898;DHT22;32646;50.958;6.258;2024-01-15T03:50:27;0.60;99.90
46898;DHT22;32646;50.958;6.258;2024-01-15T03:52:54;0.60;99.90
46898;DHT22;32646;50.958;6.258;2024-01-15T03:55:20;0.60;99.90
46898;DHT22;32646;50.958;6.258;2024-01-15T03:57:47;0.60;99.90
46898;DHT22;32646;50.958;6.258;2024-01-15T04:00:14;0.60;99.90
46898;DHT22;32646;50.958;6.258;2024-01-15T04:02:41;0.60;99.90
46898;DHT22;32646;50.958;6.258;2024-01-15T04:05:08;0.60;99.90
46898;DHT22;32646;50.958;6.258;2024-01-15T04:07:35;0.60;99.90
46898;DHT22;32646;50.958;6.258;2024-01-15T04:10:01;0.60;99.90
46898;DHT22;32646;50.958;6.258;2024-01-15T04:12:28;0.60;99.90
46898;DHT22;32646;50.958;6.258;2024-01-15T04:14:55;0.60;99.90
46898;DHT22;32646;50.958;6.258;2024-01-15T04:17:21;0.60;99.90
46898;DHT22;32646;50.958;6.258;2024-01-15T04:19:48;0.60;99.90
46898;DHT22;32646;50.958;6.258;2024-01-15T04:22:15;0.70;99.90
46898;DHT22;32646;50.958;6.258;2024-01-15T04:24:42;0.60;99.90
46898;DHT22;32646;50.958;6.258;2024-01-15T04:27:08;0.60;99.90
46898;DHT22;32646;50.958;6.258;2024-01-15T04:29:38;0.60;99.90
46898;DHT22;32646;50.958;6.258;2024-01-15T04:32:07;0.60;99.90
46898;DHT22;32646;50.958;6.258;2024-01-15T04:34:33;0.60;99.90
46898;DHT22;32646;50.958;6.258;2024-01-15T04:37:00;0.50;99.90
46898;DHT22;32646;50.958;6.258;2024-01-15T04:39:27;0.50;99.90
46898;DHT22;32646;50.958;6.258;2024-01-15T04:41:53;0.40;99.90
46898;DHT22;32646;50.958;6.258;2024-01-15T04:44:20;0.40;99.90
46898;DHT22;32646;50.958;6.258;2024-01-15T04:46:47;0.50;99.90
46898;DHT22;32646;50.958;6.258;2024-01-15T04:49:13;0.50;99.90
46898;DHT22;32646;50.958;6.258;2024-01-15T04:51:40;0.60;99.90
46898;DHT22;32646;50.958;6.258;2024-01-15T04:54:07;0.50;99.90
46898;DHT22;32646;50.958;6.258;2024-01-15T04:56:33;0.60;99.90
46898;DHT22;32646;50.958;6.258;2024-01-15T04:59:00;0.50;99.90
46898;DHT22;32646;50.958;6.258;2024-01-15T05:01:33;0.50;99.90
46898;DHT22;32646;50.958;6.258;2024-01-15T05:04:00;0.50;99.90
46898;DHT22;32646;50.958;6.258;2024-01-15T05:06:27;0.50;99.90
46898;DHT22;32646;50.958;6.258;2024-01-15T05:08:54;0.50;99.90
46898;DHT22;32646;50.958;6.258;2024-01-15T05:11:21;0.50;99.90
46898;DHT22;32646;50.958;6.258;2024-01-15T05:13:47;0.50;99.90
46898;DHT22;32646;50.958;6.258;2024-01-15T05:16:14;0.60;99.90
46898;DHT22;32646;50.958;6.258;2024-01-15T05:18:40;0.60;99.90
46898;DHT22;32646;50.958;6.258;2024-01-15T05:21:07;0.60;99.90
46898;DHT22;32646;50.958;6.258;2024-01-15T05:23:34;0.60;99.90
46898;DHT22;32646;50.958;6.258;2024-01-15T05:26:01;0.60;99.90
46898;DHT22;32646;50.958;6.258;2024-01-15T05:28:28;0.60;99.90
46898;DHT22;32646;50.958;6.258;2024-01-15T05:30:54;0.60;99.90
46898;DHT22;32646;50.958;6.258;2024-01-15T05:33:22;0.60;99.90
46898;DHT22;32646;50.958;6.258;2024-01-15T05:35:49;0.60;99.90
46898;DHT22;32646;50.958;6.258;2024-01-15T05:38:16;0.60;99.90
46898;DHT22;32646;50.958;6.258;2024-01-15T05:40:43;0.60;99.90
46898;DHT22;32646;50.958;6.258;2024-01-15T05:43:10;0.50;99.90
46898;DHT22;32646;50.958;6.258;2024-01-15T05:45:43;0.50;99.90
46898;DHT22;32646;50.958;6.258;2024-01-15T05:48:10;0.40;99.90
46898;DHT22;32646;50.958;6.258;2024-01-15T05:50:37;0.40;99.90
46898;DHT22;32646;50.958;6.258;2024-01-15T05:53:04;0.40;99.90
46898;DHT22;32646;50.958;6.258;2024-01-15T05:55:31;0.40;99.90
46898;DHT22;32646;50.958;6.258;2024-01-15T05:57:57;0.50;99.90
46898;DHT22;32646;50.958;6.258;2024-01-15T06:00:24;0.50;99.90
46898;DHT22;32646;50.958;6.258;2024-01-15T06:02:51;0.50;99.90
46898;DHT22;32646;50.958;6.258;2024-01-15T06:05:17;0.50;99.90
46898;DHT22;32646;50.958;6.258;2024-01-15T06:07:44;0.50;99.90
46898;DHT22;32646;50.958;6.258;2024-01-15T06:10:10;0.50;99.90
46898;DHT22;32646;50.958;6.258;2024-01-15T06:12:37;0.50;99.90
46898;DHT22;32646;50.958;6.258;2024-01-15T06:15:04;0.50;99.90
46898;DHT22;32646;50.958;6.258;2024-01-15T06:17:31;0.50;99.90
46898;DHT22;32646;50.958;6.258;2024-01-15T06:19:57;0.50;99.90
46898;DHT22;32646;50.958;6.258;2024-01-15T06:22:24;0.50;99.90
46898;DHT22;32646;50.958;6.258;2024-01-15T06:24:51;0.50;99.90
46898;DHT22;32646;50.958;6.258;2024-01-15T06:27:17;0.50;99.90
46898;DHT22;32646;50.958;6.258;2024-01-15T06:29:47;0.50;99.90
46898;DHT22;32646;50.958;6.258;2024-01-15T06:32:16;0.60;99.90
46898;DHT22;32646;50.958;6.258;2024-01-15T06:34:43;0.50;99.90
46898;DHT22;32646;50.958;6.258;2024-01-15T06:37:10;0.60;99.90
46898;DHT22;32646;50.958;6.258;2024-01-15T06:39:36;0.60;99.90
46898;DHT22;32646;50.958;6.258;2024-01-15T06:42:03;0.60;99.90
46898;DHT22;32646;50.958;6.258;2024-01-15T06:44:30;0.60;99.90
46898;DHT22;32646;50.958;6.258;2024-01-15T06:46:56;0.60;99.90
46898;DHT22;32646;50.958;6.258;2024-01-15T06:49:23;0.60;99.90
46898;DHT22;32646;50.958;6.258;2024-01-15T06:51:50;0.60;99.90
46898;DHT22;32646;50.958;6.258;2024-01-15T06:54:16;0.60;99.90
46898;DHT22;32646;50.958;6.258;2024-01-15T06:56:43;0.60;99.90
46898;DHT22;32646;50.958;6.258;2024-01-15T06:59:10;0.60;99.90
46898;DHT22;32646;50.958;6.258;2024-01-15T07:01:36;0.60;99.90
46898;DHT22;32646;50.958;6.258;2024-01-15T07:04:03;0.60;99.90
46898;DHT22;32646;50.958;6.258;2024-01-15T07:06:30;0.60;99.90
46898;DHT22;32646;50.958;6.258;2024-01-15T07:08:56;0.60;99.90
46898;DHT22;32646;50.958;6.258;2024-01-15T07:11:23;0.60;99.90
46898;DHT22;32646;50.958;6.258;2024-01-15T07:13:50;0.60;99.90
46898;DHT22;32646;50.958;6.258;2024-01-15T07:16:16;0.70;99.90
46898;DHT22;32646;50.958;6.258;2024-01-15T07:19:02;0.70;99.90
46898;DHT22;32646;50.958;6.258;2024-01-15T07:21:29;0.70;99.90
46898;DHT22;32646;50.958;6.258;2024-01-15T07:23:56;0.70;99.90
46898;DHT22;32646;50.958;6.258;2024-01-15T07:26:22;0.70;99.90
46898;DHT22;32646;50.958;6.258;2024-01-15T07:28:49;0.70;99.90
46898;DHT22;32646;50.958;6.258;2024-01-15T07:31:17;0.70;99.90
46898;DHT22;32646;50.958;6.258;2024-01-15T07:33:43;0.60;99.90
46898;DHT22;32646;50.958;6.258;2024-01-15T07:36:10;0.70;99.90
46898;DHT22;32646;50.958;6.258;2024-01-15T07:38:37;0.70;99.90
46898;DHT22;32646;50.958;6.258;2024-01-15T07:41:03;0.70;99.90
46898;DHT22;32646;50.958;6.258;2024-01-15T07:43:30;0.70;99.90
46898;DHT22;32646;50.958;6.258;2024-01-15T07:45:56;0.70;99.90
46898;DHT22;32646;50.958;6.258;2024-01-15T07:48:23;0.70;99.90
46898;DHT22;32646;50.958;6.258;2024-01-15T07:50:50;0.70;99.90
46898;DHT22;32646;50.958;6.258;2024-01-15T07:53:17;0.70;99.90
46898;DHT22;32646;50.958;6.258;2024-01-15T07:55:43;0.60;99.90
46898;DHT22;32646;50.958;6.258;2024-01-15T07:58:10;0.70;99.90
46898;DHT22;32646;50.958;6.258;2024-01-15T08:00:42;0.70;99.90
46898;DHT22;32646;50.958;6.258;2024-01-15T08:03:11;0.70;99.90
46898;DHT22;32646;50.958;6.258;2024-01-15T08:05:38;0.70;99.90
46898;DHT22;32646;50.958;6.258;2024-01-15T08:08:05;0.70;99.90
46898;DHT22;32646;50.958;6.258;2024-01-15T08:10:32;0.70;99.90
46898;DHT22;32646;50.958;6.258;2024-01-15T08:12:58;0.70;99.90
46898;DHT22;32646;50.958;6.258;2024-01-15T08:15:25;0.70;99.90
46898;DHT22;32646;50.958;6.258;2024-01-15T08:17:57;0.60;99.90
46898;DHT22;32646;50.958;6.258;2024-01-15T08:20:24;0.60;99.90
46898;DHT22;32646;50.958;6.258;2024-01-15T08:22:50;0.60;99.90
46898;DHT22;32646;50.958;6.258;2024-01-15T08:25:17;0.60;99.90
46898;DHT22;32646;50.958;6.258;2024-01-15T08:27:44;0.60;99.90
46898;DHT22;32646;50.958;6.258;2024-01-15T08:30:11;0.60;99.90
46898;DHT22;32646;50.958;6.258;2024-01-15T08:32:38;0.70;99.90
46898;DHT22;32646;50.958;6.258;2024-01-15T08:35:04;0.60;99.90
46898;DHT22;32646;50.958;6.258;2024-01-15T08:37:31;0.70;99.90
46898;DHT22;32646;50.958;6.258;2024-01-15T08:39:58;0.70;99.90
46898;DHT22;32646;50.958;6.258;2024-01-15T08:42:24;0.60;99.90
46898;DHT22;32646;50.958;6.258;2024-01-15T08:44:51;0.60;99.90
46898;DHT22;32646;50.958;6.258;2024-01-15T08:47:18;0.60;99.90
46898;DHT22;32646;50.958;6.258;2024-01-15T08:49:44;0.60;99.90
46898;DHT22;32646;50.958;6.258;2024-01-15T08:52:11;0.60;99.90
46898;DHT22;32646;50.958;6.258;2024-01-15T08:54:38;0.60;99.90
46898;DHT22;32646;50.958;6.258;2024-01-15T08:57:04;0.60;99.90
46898;DHT22;32646;50.958;6.258;2024-01-15T08:59:31;0.50;99.90
46898;DHT22;32646;50.958;6.258;2024-01-15T09:01:57;0.40;99.90
46898;DHT22;32646;50.958;6.258;2024-01-15T09:04:24;0.50;99.90
46898;DHT22;32646;50.958;6.258;2024-01-15T09:06:51;0.50;99.90
46898;DHT22;32646;50.958;6.258;2024-01-15T09:09:17;0.50;99.90
46898;DHT22;32646;50.958;6.258;2024-01-15T09:11:45;0.60;99.90
46898;DHT22;32646;50.958;6.258;2024-01-15T09:14:11;0.50;99.90
46898;DHT22;32646;50.958;6.258;2024-01-15T09:16:39;0.60;99.90
46898;DHT22;32646;50.958;6.258;2024-01-15T09:19:06;0.60;99.90
46898;DHT22;32646;50.958;6.258;2024-01-15T09:21:32;0.60;99.90
46898;DHT22;32646;50.958;6.258;2024-01-15T09:23:59;0.70;99.90
46898;DHT22;32646;50.958;6.258;2024-01-15T09:26:26;0.70;99.90
46898;DHT22;32646;50.958;6.258;2024-01-15T09:28:52;0.50;99.90
46898;DHT22;32646;50.958;6.258;2024-01-15T09:31:19;0.60;99.90
46898;DHT22;32646;50.958;6.258;2024-01-15T09:33:46;0.50;99.90
46898;DHT22;32646;50.958;6.258;2024-01-15T09:36:13;0.50;99.90
46898;DHT22;32646;50.958;6.258;2024-01-15T09:38:40;0.50;99.90
46898;DHT22;32646;50.958;6.258;2024-01-15T09:41:07;0.60;99.90
46898;DHT22;32646;50.958;6.258;2024-01-15T09:43:34;0.60;99.90
46898;DHT22;32646;50.958;6.258;2024-01-15T09:46:01;0.60;99.90
46898;DHT22;32646;50.958;6.258;2024-01-15T09:48:28;0.60;99.90
46898;DHT22;32646;50.958;6.258;2024-01-15T09:50:57;0.60;99.90
46898;DHT22;32646;50.958;6.258;2024-01-15T09:53:24;0.50;99.90
46898;DHT22;32646;50.958;6.258;2024-01-15T09:55:52;0.60;99.90
46898;DHT22;32646;50.958;6.258;2024-01-15T09:58:19;0.50;99.90
46898;DHT22;32646;50.958;6.258;2024-01-15T10:00:48;0.50;99.90
46898;DHT22;32646;50.958;6.258;2024-01-15T10:03:15;0.40;99.90
46898;DHT22;32646;50.958;6.258;2024-01-15T10:05:43;0.40;99.90
46898;DHT22;32646;50.958;6.258;2024-01-15T10:08:10;0.40;99.90
46898;DHT22;32646;50.958;6.258;2024-01-15T10:10:37;0.40;99.90
46898;DHT22;32646;50.958;6.258;2024-01-15T10:13:04;0.40;99.90
46898;DHT22;32646;50.958;6.258;2024-01-15T10:15:34;0.30;99.90
46898;DHT22;32646;50.958;6.258;2024-01-15T10:18:01;0.30;99.90
46898;DHT22;32646;50.958;6.258;2024-01-15T10:20:28;0.30;99.90
46898;DHT22;32646;50.958;6.258;2024-01-15T10:22:55;0.30;99.90
46898;DHT22;32646;50.958;6.258;2024-01-15T10:25:22;0.30;99.90
46898;DHT22;32646;50.958;6.258;2024-01-15T10:28:02;0.30;99.90
46898;DHT22;32646;50.958;6.258;2024-01-15T10:30:30;0.40;99.90
46898;DHT22;32646;50.958;6.258;2024-01-15T10:33:01;0.40;99.90
46898;DHT22;32646;50.958;6.258;2024-01-15T10:35:32;0.40;99.90
46898;DHT22;32646;50.958;6.258;2024-01-15T10:38:00;0.40;99.90
46898;DHT22;32646;50.958;6.258;2024-01-15T10:40:28;0.30;99.90
46898;DHT22;32646;50.958;6.258;2024-01-15T10:42:55;0.30;99.90
46898;DHT22;32646;50.958;6.258;2024-01-15T10:45:22;0.30;99.90
46898;DHT22;32646;50.958;6.258;2024-01-15T10:47:49;0.30;99.90
46898;DHT22;32646;50.958;6.258;2024-01-15T10:50:15;0.40;99.90
46898;DHT22;32646;50.958;6.258;2024-01-15T10:52:42;0.40;99.90
46898;DHT22;32646;50.958;6.258;2024-01-15T10:55:09;0.40;99.90
46898;DHT22;32646;50.958;6.258;2024-01-15T10:57:45;0.50;99.90
46898;DHT22;32646;50.958;6.258;2024-01-15T11:00:13;0.60;99.90
46898;DHT22;32646;50.958;6.258;2024-01-15T11:02:39;0.60;99.90
46898;DHT22;32646;50.958;6.258;2024-01-15T11:05:06;0.60;99.90
46898;DHT22;32646;50.958;6.258;2024-01-15T11:07:33;0.60;99.90
46898;DHT22;32646;50.958;6.258;2024-01-15T11:10:02;0.70;99.90
46898;DHT22;32646;50.958;6.258;2024-01-15T11:12:29;0.70;99.90
46898;DHT22;32646;50.958;6.258;2024-01-15T11:15:02;0.70;99.90
46898;DHT22;32646;50.958;6.258;2024-01-15T11:17:58;0.70;99.90
46898;DHT22;32646;50.958;6.258;2024-01-15T11:20:25;0.90;99.90
46898;DHT22;32646;50.958;6.258;2024-01-15T11:22:52;0.90;99.90
46898;DHT22;32646;50.958;6.258;2024-01-15T11:25:19;0.90;99.90
46898;DHT22;32646;50.958;6.258;2024-01-15T11:27:47;1.00;99.90
46898;DHT22;32646;50.958;6.258;2024-01-15T11:30:15;1.00;99.90
46898;DHT22;32646;50.958;6.258;2024-01-15T11:32:41;1.00;99.90
46898;DHT22;32646;50.958;6.258;2024-01-15T11:35:11;1.00;99.90
46898;DHT22;32646;50.958;6.258;2024-01-15T11:40:21;1.10;99.90
46898;DHT22;32646;50.958;6.258;2024-01-15T11:42:48;1.30;99.90
46898;DHT22;32646;50.958;6.258;2024-01-15T11:45:19;1.40;99.90
46898;DHT22;32646;50.958;6.258;2024-01-15T11:48:12;1.80;99.90
46898;DHT22;32646;50.958;6.258;2024-01-15T11:50:49;1.90;99.90
46898;DHT22;32646;50.958;6.258;2024-01-15T11:53:27;3.00;99.90
46898;DHT22;32646;50.958;6.258;2024-01-15T11:55:57;3.60;99.90
46898;DHT22;32646;50.958;6.258;2024-01-15T11:58:24;3.40;99.90
46898;DHT22;32646;50.958;6.258;2024-01-15T12:00:51;2.90;99.90
46898;DHT22;32646;50.958;6.258;2024-01-15T12:03:24;2.60;99.90
46898;DHT22;32646;50.958;6.258;2024-01-15T12:05:54;2.30;99.90
46898;DHT22;32646;50.958;6.258;2024-01-15T12:08:22;1.90;99.90
46898;DHT22;32646;50.958;6.258;2024-01-15T12:10:49;1.70;99.90
46898;DHT22;32646;50.958;6.258;2024-01-15T12:13:16;1.40;99.90
46898;DHT22;32646;50.958;6.258;2024-01-15T12:15:44;1.30;99.90
46898;DHT22;32646;50.958;6.258;2024-01-15T12:18:13;1.30;99.90
46898;DHT22;32646;50.958;6.258;2024-01-15T12:20:42;1.30;99.90
46898;DHT22;32646;50.958;6.258;2024-01-15T12:23:10;1.30;99.90
46898;DHT22;32646;50.958;6.258;2024-01-15T12:25:36;1.40;99.90
46898;DHT22;32646;50.958;6.258;2024-01-15T12:28:03;1.40;99.90
46898;DHT22;32646;50.958;6.258;2024-01-15T12:30:31;1.40;99.90
46898;DHT22;32646;50.958;6.258;2024-01-15T12:33:03;1.40;99.90
46898;DHT22;32646;50.958;6.258;2024-01-15T12:35:31;1.40;99.90
46898;DHT22;32646;50.958;6.258;2024-01-15T12:38:00;1.40;99.90
46898;DHT22;32646;50.958;6.258;2024-01-15T12:40:26;1.40;99.90
46898;DHT22;32646;50.958;6.258;2024-01-15T12:42:53;1.30;99.90
46898;DHT22;32646;50.958;6.258;2024-01-15T12:45:20;1.30;99.90
46898;DHT22;32646;50.958;6.258;2024-01-15T12:47:46;1.30;99.90
46898;DHT22;32646;50.958;6.258;2024-01-15T12:50:14;1.30;99.90
46898;DHT22;32646;50.958;6.258;2024-01-15T12:52:46;1.30;99.90
46898;DHT22;32646;50.958;6.258;2024-01-15T12:55:13;1.40;99.90
46898;DHT22;32646;50.958;6.258;2024-01-15T12:57:40;1.30;99.90
46898;DHT22;32646;50.958;6.258;2024-01-15T13:00:07;1.30;99.90
46898;DHT22;32646;50.958;6.258;2024-01-15T13:02:34;1.20;99.90
46898;DHT22;32646;50.958;6.258;2024-01-15T13:05:01;1.30;99.90
46898;DHT22;32646;50.958;6.258;2024-01-15T13:07:30;1.70;99.90
46898;DHT22;32646;50.958;6.258;2024-01-15T13:09:56;1.90;99.90
46898;DHT22;32646;50.958;6.258;2024-01-15T13:12:23;1.80;99.90
46898;DHT22;32646;50.958;6.258;2024-01-15T13:14:50;1.60;99.90
46898;DHT22;32646;50.958;6.258;2024-01-15T13:17:16;1.40;99.90
46898;DHT22;32646;50.958;6.258;2024-01-15T13:19:46;1.40;99.90
46898;DHT22;32646;50.958;6.258;2024-01-15T13:22:13;1.20;99.90
46898;DHT22;32646;50.958;6.258;2024-01-15T13:24:39;1.10;99.90
46898;DHT22;32646;50.958;6.258;2024-01-15T13:27:06;1.00;99.90
46898;DHT22;32646;50.958;6.258;2024-01-15T13:29:33;0.90;99.90
46898;DHT22;32646;50.958;6.258;2024-01-15T13:32:00;0.90;99.90
46898;DHT22;32646;50.958;6.258;2024-01-15T13:34:27;0.90;99.90
46898;DHT22;32646;50.958;6.258;2024-01-15T13:36:53;0.90;99.90
46898;DHT22;32646;50.958;6.258;2024-01-15T13:39:20;0.80;99.90
46898;DHT22;32646;50.958;6.258;2024-01-15T13:41:47;0.90;99.90
46898;DHT22;32646;50.958;6.258;2024-01-15T13:44:13;0.90;99.90
46898;DHT22;32646;50.958;6.258;2024-01-15T13:46:40;1.00;99.90
46898;DHT22;32646;50.958;6.258;2024-01-15T13:49:06;1.10;99.90
46898;DHT22;32646;50.958;6.258;2024-01-15T13:51:33;1.00;99.90
46898;DHT22;32646;50.958;6.258;2024-01-15T13:54:00;1.00;99.90
46898;DHT22;32646;50.958;6.258;2024-01-15T13:56:26;1.00;99.90
46898;DHT22;32646;50.958;6.258;2024-01-15T13:58:53;1.10;99.90
46898;DHT22;32646;50.958;6.258;2024-01-15T14:01:20;1.20;99.90
46898;DHT22;32646;50.958;6.258;2024-01-15T14:03:46;1.10;99.90
46898;DHT22;32646;50.958;6.258;2024-01-15T14:06:13;1.10;99.90
46898;DHT22;32646;50.958;6.258;2024-01-15T14:08:40;1.10;99.90
46898;DHT22;32646;50.958;6.258;2024-01-15T14:11:06;1.00;99.90
46898;DHT22;32646;50.958;6.258;2024-01-15T14:13:33;1.00;99.90
46898;DHT22;32646;50.958;6.258;2024-01-15T14:16:00;1.00;99.90
46898;DHT22;32646;50.958;6.258;2024-01-15T14:18:27;0.90;99.90
46898;DHT22;32646;50.958;6.258;2024-01-15T14:20:59;1.00;99.90
46898;DHT22;32646;50.958;6.258;2024-01-15T14:23:26;0.90;99.90
46898;DHT22;32646;50.958;6.258;2024-01-15T14:25:53;1.00;99.90
46898;DHT22;32646;50.958;6.258;2024-01-15T14:28:20;1.00;99.90
46898;DHT22;32646;50.958;6.258;2024-01-15T14:30:47;1.00;99.90
46898;DHT22;32646;50.958;6.258;2024-01-15T14:33:13;1.00;99.90
46898;DHT22;32646;50.958;6.258;2024-01-15T14:35:40;0.90;99.90
46898;DHT22;32646;50.958;6.258;2024-01-15T14:38:07;0.90;99.90
46898;DHT22;32646;50.958;6.258;2024-01-15T14:40:34;0.80;99.90
46898;DHT22;32646;50.958;6.258;2024-01-15T14:43:01;0.60;99.90
46898;DHT22;32646;50.958;6.258;2024-01-15T14:45:28;0.50;99.90
46898;DHT22;32646;50.958;6.258;2024-01-15T14:47:55;0.50;99.90
46898;DHT22;32646;50.958;6.258;2024-01-15T14:50:21;0.40;99.90
46898;DHT22;32646;50.958;6.258;2024-01-15T14:52:48;0.40;99.90
46898;DHT22;32646;50.958;6.258;2024-01-15T14:55:15;0.40;99.90
46898;DHT22;32646;50.958;6.258;2024-01-15T14:57:41;0.40;99.90
46898;DHT22;32646;50.958;6.258;2024-01-15T15:00:08;0.40;99.90
46898;DHT22;32646;50.958;6.258;2024-01-15T15:02:35;0.40;99.90
46898;DHT22;32646;50.958;6.258;2024-01-15T15:05:03;0.40;99.90
46898;DHT22;32646;50.958;6.258;2024-01-15T15:07:30;0.40;99.90
46898;DHT22;32646;50.958;6.258;2024-01-15T15:09:56;0.50;99.90
46898;DHT22;32646;50.958;6.258;2024-01-15T15:12:23;0.50;99.90
46898;DHT22;32646;50.958;6.258;2024-01-15T15:14:50;0.50;99.90
46898;DHT22;32646;50.958;6.258;2024-01-15T15:17:29;0.50;99.90
46898;DHT22;32646;50.958;6.258;2024-01-15T15:19:56;0.60;99.90
46898;DHT22;32646;50.958;6.258;2024-01-15T15:22:24;0.60;99.90
46898;DHT22;32646;50.958;6.258;2024-01-15T15:24:50;0.60;99.90
46898;DHT22;32646;50.958;6.258;2024-01-15T15:27:17;0.60;99.90
46898;DHT22;32646;50.958;6.258;2024-01-15T15:29:44;0.70;99.90
46898;DHT22;32646;50.958;6.258;2024-01-15T15:32:10;0.70;99.90
46898;DHT22;32646;50.958;6.258;2024-01-15T15:34:37;0.70;99.90
46898;DHT22;32646;50.958;6.258;2024-01-15T15:37:04;0.60;99.90
46898;DHT22;32646;50.958;6.258;2024-01-15T15:39:30;0.60;99.90
46898;DHT22;32646;50.958;6.258;2024-01-15T15:41:57;0.60;99.90
46898;DHT22;32646;50.958;6.258;2024-01-15T15:44:23;0.60;99.90
46898;DHT22;32646;50.958;6.258;2024-01-15T15:46:50;0.60;99.90